Řízení letového provozu České republiky
Letiste: LKMT Aktualizace: 26.09.2016 03:34:08  UTC
 METAR LKMT 26.09. 03:30 ...
METAR LKMT 260330Z VRB02KT 4000 1000N R22/0600 R04/P2000N BCFG FEW002 05/04 Q1022 NOSIG=
 TAF LKMT 25.09. 23:00 ...
TAF LKMT 252300Z 2600/2706 VRB02KT 3000 BR NSC      BECMG 2600/2602 0300 FG VV002      TEMPO 2602/2606 0100 FG VV001      BECMG 2606/2608 CAVOK      BECMG 2700/2702 0100 FG VV001=